Terminal Aerodrome Forecast
Issued by NWS Bismarck, ND

Home | Current Version | Previous Version | Graphics & Text | Print | Product List | Glossary On
Versions: 1 2 3 4 5 6 7 8 9 10 11 12 13 14 15
000
FTUS43 KBIS 151130
TAFISN
TAF
KISN 151130Z 1512/1612 35011KT P6SM BKN020
      TEMPO 1512/1515 SCT020
     FM151500 02005KT P6SM SCT250
     FM152000 09006KT P6SM BKN250
     FM160800 12010KT P6SM BKN250=

USA.gov is the U.S. government's official web portal to all federal, state and local government web resources and services.